Accueil
METAR-TAF:

METAR-TAF

Aéroports :

Aéroport de Reus

Reus, Espagne

latitude: 41-09N, longitude: 001-10E, altitude: 71 m

Observation

Le bulletin a été fait il y a 24 minutes, à 02:00 UTC
Vent 4 kt de nord-est
Température 19°C
Humidité 88%
Pression 1020 hPa
Visibilité 10 km ou plus

METAR: LERS 190200Z AUTO 05004KT 9999 NCD 19/17 Q1020

Heure: 04:24 (02:24 UTC)

Prévision

Le bulletin a été fait il y a 6 heures et 24 minutes, à 20:00 UTC
Prévision valable du 18 à 21 UTC au 19 à 21 UTC
Vent 4 kt de direction variable
Visibilité 10 km ou plus
Quelques nuages à une hauteur de 3000 ft
Evoluant progressivement
du 19 à 10 UTC au 19 à 12 UTC
Vent 10 kt de sud
Evoluant progressivement
du 19 à 18 UTC au 19 à 21 UTC
Vent 4 kt de direction variable

TAF: LERS 182000Z 1821/1921 VRB04KT 9999 FEW030 TX32/1913Z TN20/1905Z BECMG 1910/1912 19010KT BECMG 1918/1921 VRB04KT

Observations et prévisions météorologiques de plus de 4000 aéroports (messages METAR et TAF).

Les stations disponibles sont représentées par des disques jaunes et rouges sur la carte.

Passer la souris dessus pour voir le nom de la station.

Cliquer dessus pour voir les observations et prévisions météorologiques.

Pour changer de carte: cliquez sur les boutons verts avec une croix noire pour zoomer, sur le bouton vert avec un tiret pour effectuer un zoom arrière, ou sur les flèches vertes pour les cartes adjacentes.


METAR-TAF: